KMXO/MXO METAR and TAF weather

Enter ICAO airport designator
Station Type Date Time Source
KMXO METAR 2020/01/19 14:35 UTC NOAA

KMXO 191435Z AUTO 32014KT 10SM OVC014 M17/M20 A3037 RMK AO2


Station Type Date Time Source
KMXO Decoded METAR 2020/01/19 14:35 UTC NOAA

Monticello Municipal, IA, United States (KMXO) 42-14N 091-10W
Jan 19, 2020 - 09:35 AM EST / 2020.01.19 1435 UTC
Wind: from the NW (320 degrees) at 16 MPH (14 KT):0
Visibility: 10 mile(s):0
Sky conditions: overcast
Temperature: 1 F (-17 C)
Windchill: -18 F (-28 C):2
Dew Point: -4 F (-20 C)
Relative Humidity: 77%
Pressure (altimeter): 30.37 in. Hg (1028 hPa)
ob: KMXO 191435Z AUTO 32014KT 10SM OVC014 M17/M20 A3037 RMK AO2
cycle: 14

Station Type Date Time Source
KMXO TAF UTC NOAA

Error!

Example: see airport list